KGVT/GVT METAR and TAF weather

Enter ICAO airport designator
Station Type Date Time Source
KGVT METAR 2023/09/28 17:15 UTC NOAA

KGVT 281715Z AUTO 18004KT 10SM CLR 32/20 A2999 RMK AO2 TSNO T03210204


Station Type Date Time Source
KGVT Decoded METAR 2023/09/28 17:15 UTC NOAA

Greenville / Majors, TX, United States (KGVT) 33-04N 096-04W
Sep 28, 2023 - 01:15 PM EDT / 2023.09.28 1715 UTC
Wind: from the S (180 degrees) at 5 MPH (4 KT):0
Visibility: 10 mile(s):0
Sky conditions: clear
Temperature: 89.8 F (32.1 C)
Heat index: 94.3 F (34.6 C):1
Dew Point: 68.7 F (20.4 C)
Relative Humidity: 50%
Pressure (altimeter): 29.99 in. Hg (1015 hPa)
ob: KGVT 281715Z AUTO 18004KT 10SM CLR 32/20 A2999 RMK AO2 TSNO T03210204
cycle: 17

Station Type Date Time Source
KGVT TAF UTC NOAA

Error!

Example: see airport list